EW5928 Weather Reports


Display with metric or nautical units.
time (UTC)temp
F
wind
direction
speed
MPH
gust
MPH
rain 1hr
in
rain 24hr
in
rain mn
in
humidity
%
barometer
mb
20240527160313 60 258 4.0 11.0 0.00 0.40 0.20 90 1000.7
20240527155811 60 258 4.0 13.0 0.00 0.40 0.20 89 1000.7
20240527155312 60 219 5.0 13.0 0.00 0.40 0.20 89 1000.7
20240527154812 60 257 4.0 10.0 0.00 0.40 0.20 89 1000.5
20240527154313 60 255 4.0 10.0 0.00 0.40 0.20 89 1000.5
20240527153312 60 266 4.0 9.0 0.00 0.40 0.20 89 1000.5
20240527152811 60 275 5.0 9.0 0.00 0.40 0.20 88 1000.5
20240527151810 60 290 5.0 12.0 0.00 0.40 0.20 89 1000.3
20240527151309 60 257 4.0 9.0 0.00 0.40 0.20 88 1000.3
20240527150811 60 272 4.0 11.0 0.00 0.40 0.20 89 1000.1
20240527145811 60 258 4.0 12.0 0.00 0.40 0.20 89 1000.1
20240527145309 60 251 4.0 12.0 0.00 0.40 0.20 89 1000.0
20240527144810 60 257 3.0 10.0 0.00 0.40 0.20 90 999.9
20240527144311 59 254 4.0 6.0 0.00 0.40 0.20 89 999.9
20240527143311 60 268 4.0 7.0 0.00 0.40 0.20 88 999.6
20240527142311 60 265 5.0 11.0 0.00 0.40 0.20 86 999.6
20240527141810 61 296 4.0 11.0 0.00 0.40 0.20 87 999.5
20240527140810 60 278 7.0 13.0 0.00 0.40 0.20 89 999.4
20240527135809 61 279 5.0 14.0 0.00 0.40 0.20 91 999.3
20240527135309 61 296 8.0 14.0 0.00 0.40 0.20 91 999.2
20240527134307 63 269 7.0 12.0 0.00 0.40 0.20 92 999.2
20240527133308 64 245 9.0 22.0 0.00 0.40 0.20 90 998.9
20240527132807 65 248 4.0 9.0 0.00 0.40 0.20 93 998.6
20240527132308 65 262 4.0 10.0 0.00 0.40 0.20 95 998.5
20240527131808 65 233 5.0 10.0 0.00 0.40 0.20 95 998.5
20240527131306 65 259 3.0 6.0 0.00 0.40 0.20 95 998.6
20240527130807 65 283 2.0 10.0 0.00 0.40 0.20 96 998.5
20240527130309 65 233 5.0 11.0 0.00 0.40 0.20 96 998.5
20240527125808 64 261 6.0 11.0 0.00 0.40 0.20 96 998.4
20240527125309 64 231 6.0 10.0 0.00 0.40 0.20 96 998.3
20240527124808 64 233 4.0 11.0 0.00 0.40 0.20 96 998.3
20240527124307 64 238 6.0 11.0 0.00 0.40 0.20 97 998.2
20240527123807 64 223 5.0 9.0 0.00 0.40 0.20 97 998.1
20240527123304 64 254 4.0 10.0 0.00 0.40 0.20 97 998.0
20240527122805 63 245 6.0 10.0 0.00 0.40 0.20 97 998.1
20240527122305 62 279 4.0 10.0 0.00 0.40 0.20 97 997.9
20240527121808 62 237 4.0 6.0 0.00 0.40 0.20 97 997.8
20240527121307 62 231 3.0 6.0 0.00 0.40 0.20 97 997.8
20240527120808 61 200 3.0 6.0 0.00 0.40 0.20 97 997.7
20240527115807 61 212 3.0 6.0 0.00 0.40 0.20 97 997.7
20240527115302 61 241 3.0 9.0 0.00 0.40 0.20 97 997.6
20240527114802 61 180 4.0 9.0 0.00 0.40 0.20 97 997.4
20240527114304 60 207 3.0 7.0 0.00 0.40 0.20 97 997.6
20240527113803 60 214 3.0 5.0 0.00 0.40 0.20 97 997.6
20240527113306 60 169 2.0 5.0 0.00 0.40 0.20 97 997.6
20240527112806 60 185 3.0 5.0 0.00 0.40 0.20 96 997.6
20240527112306 60 213 2.0 4.0 0.00 0.40 0.20 96 997.7
20240527111806 60 195 2.0 4.0 0.00 0.40 0.20 96 997.6
20240527111305 60 223 2.0 5.0 0.00 0.40 0.20 96 997.8
20240527110806 60 196 2.0 5.0 0.01 0.40 0.20 96 997.7
20240527110306 59 168 2.0 4.0 0.02 0.40 0.20 96 997.7
20240527105806 59 165 2.0 5.0 0.02 0.40 0.20 96 997.8
20240527105306 59 197 2.0 5.0 0.03 0.40 0.20 96 998.0
20240527104807 59 193 2.0 6.0 0.04 0.40 0.20 96 998.0
20240527104305 59 190 2.0 6.0 0.04 0.40 0.20 96 998.0
20240527103305 59 159 2.0 6.0 0.06 0.40 0.20 96 998.1
20240527102805 59 149 2.0 4.0 0.06 0.40 0.20 96 998.1
20240527102305 59 152 2.0 4.0 0.09 0.40 0.20 96 998.2
20240527100306 59 123 2.0 4.0 0.15 0.38 0.18 96 998.2
20240527095804 59 275 1.0 4.0 0.16 0.38 0.18 96 998.1
20240527095304 59 290 2.0 5.0 0.15 0.37 0.17 96 998.0
20240527094803 59 302 3.0 5.0 0.15 0.36 0.16 96 997.9
20240527094304 59 310 4.0 6.0 0.15 0.36 0.16 96 997.9
20240527093804 59 295 2.0 6.0 0.14 0.35 0.15 96 997.8
20240527093304 59 290 4.0 12.0 0.13 0.34 0.14 96 997.9
20240527092805 59 266 4.0 12.0 0.13 0.34 0.14 96 998.1
20240527091303 62 290 7.0 17.0 0.08 0.28 0.08 95 998.5
20240527090304 64 241 3.0 6.0 0.03 0.23 0.03 97 998.3
20240527085803 64 189 2.0 3.0 0.02 0.22 0.02 97 998.2
20240527084303 64 155 2.0 5.0 0.01 0.21 0.01 97 998.1
20240527083803 64 140 3.0 4.0 0.01 0.21 0.01 97 998.1
20240527082802 63 183 1.0 6.0 0.01 0.21 0.01 97 998.3
20240527082304 63 152 1.0 6.0 0.01 0.21 0.01 97 998.3
20240527081802 63 155 4.0 6.0 0.01 0.21 0.01 97 998.3
20240527081303 63 176 2.0 4.0 0.00 0.20 0.00 97 998.3
20240527080802 63 148 1.0 5.0 0.00 0.20 0.00 97 998.4
20240527080301 63 147 2.0 5.0 0.00 0.20 0.00 97 998.4
20240527075802 63 145 2.0 5.0 0.00 0.20 0.00 97 998.4
20240527075302 63 130 2.0 4.0 0.00 0.20 0.00 97 998.3
20240527074803 63 173 2.0 7.0 0.00 0.20 0.00 97 998.4
20240527074301 62 109 4.0 7.0 0.00 0.20 0.00 97 998.5
20240527073802 62 151 2.0 5.0 0.00 0.20 0.00 97 998.6
20240527073302 62 151 2.0 4.0 0.00 0.20 0.00 97 998.6
20240527072301 62 142 3.0 5.0 0.00 0.20 0.00 97 998.9
20240527071800 62 157 2.0 6.0 0.00 0.20 0.00 97 999.0
20240527071302 62 158 2.0 6.0 0.00 0.20 0.00 96 999.1
20240527070304 62 140 3.0 7.0 0.00 0.20 0.00 96 999.0
20240527065802 62 182 4.0 7.0 0.00 0.20 0.00 96 998.9
20240527065302 62 144 4.0 7.0 0.00 0.20 0.00 96 998.8
20240527064301 62 147 1.0 4.0 0.00 0.20 0.00 96 998.8
20240527063801 62 79 2.0 5.0 0.00 0.20 0.00 96 998.8
20240527063300 62 113 2.0 6.0 0.00 0.20 0.00 96 998.9
20240527062300 62 124 4.0 5.0 0.00 0.20 0.00 96 999.2
20240527061802 62 140 3.0 5.0 0.00 0.20 0.00 96 999.3
20240527061259 62 152 3.0 6.0 0.00 0.20 0.00 96 999.1
20240527060759 62 117 2.0 6.0 0.00 0.20 0.00 96 999.3
20240527060259 62 127 2.0 5.0 0.00 0.20 0.00 96 999.6
20240527055759 62 142 1.0 4.0 0.00 0.20 0.00 96 999.8
20240527054802 62 83 1.0 3.0 0.00 0.20 0.00 96 1000.0
20240527054301 62 111 2.0 3.0 0.00 0.20 0.00 96 1000.2
20240527053300 62 116 1.0 3.0 0.00 0.20 0.00 96 1000.5
20240527052759 61 134 2.0 3.0 0.00 0.20 0.00 96 1000.8
20240527052258 61 175 1.0 3.0 0.00 0.20 0.00 96 1001.0
20240527051759 61 152 2.0 3.0 0.00 0.20 0.00 96 1001.0
20240527051259 61 128 1.0 4.0 0.00 0.20 0.00 96 1001.1
20240527050255 61 158 0.0 4.0 0.00 0.20 0.00 96 1001.5
20240527044758 61 130 2.0 4.0 0.00 0.20 0.00 96 1001.5
20240527044258 61 71 2.0 4.0 0.00 0.20 0.00 96 1001.8
20240527043256 61 159 2.0 5.0 0.00 0.20 0.00 96 1002.0
20240527042757 61 141 2.0 5.0 0.00 0.20 0.00 96 1001.8
20240527042257 61 203 2.0 4.0 0.00 0.20 0.00 96 1001.6
20240527041257 61 111 2.0 5.0 0.00 0.20 0.00 96 1001.4
20240527040757 61 110 2.0 5.0 0.00 0.20 0.00 96 1001.4
20240527040257 61 102 2.0 3.0 0.00 0.20 0.00 95 1001.2
20240527035757 61 99 2.0 4.0 0.00 0.20 0.20 95 1001.2
20240527035257 61 93 2.0 4.0 0.00 0.20 0.20 96 1000.8
20240527034256 61 114 2.0 4.0 0.00 0.20 0.20 95 1001.1
20240527033756 61 142 0.0 4.0 0.00 0.20 0.20 95 1001.3
20240527033257 61 99 2.0 4.0 0.00 0.20 0.20 95 1001.5
20240527032758 61 93 1.0 3.0 0.00 0.20 0.20 95 1001.7
20240527032256 61 109 2.0 3.0 0.00 0.20 0.20 95 1001.7
20240527030256 60 94 2.0 3.0 0.00 0.20 0.20 95 1002.2
20240527025756 60 145 1.0 4.0 0.00 0.20 0.20 95 1002.4
20240527025257 60 89 1.0 4.0 0.00 0.20 0.20 95 1002.1
20240527024756 60 103 2.0 4.0 0.00 0.20 0.20 95 1001.7
20240527023757 60 65 0.0 0.0 0.00 0.20 0.20 95 1002.4
20240527023257 60 65 0.0 0.0 0.00 0.20 0.20 95 1002.4
20240527022255 60 65 0.0 0.0 0.00 0.20 0.20 94 1002.5
20240527021756 60 65 0.0 0.0 0.00 0.20 0.20 94 1002.4
20240527021255 60 65 0.0 0.0 0.00 0.20 0.20 94 1002.3
20240527020255 61 65 0.0 1.0 0.00 0.20 0.20 94 1002.3
20240527015255 61 65 1.0 3.0 0.00 0.20 0.20 95 1002.2
20240527014755 61 37 0.0 1.0 0.00 0.20 0.20 94 1002.2
20240527013756 61 37 0.0 2.0 0.00 0.20 0.20 94 1002.1
20240527012754 62 94 0.0 0.0 0.00 0.20 0.20 94 1001.9
20240527012253 62 94 0.0 1.0 0.00 0.20 0.20 94 1001.8
20240527011754 62 94 0.0 1.0 0.00 0.20 0.20 94 1001.7
20240527011254 62 94 0.0 2.0 0.00 0.20 0.20 94 1001.5
20240527010254 63 59 1.0 6.0 0.00 0.20 0.20 94 1001.3
20240527005752 63 0 2.0 7.0 0.00 0.20 0.20 94 1001.2
20240527005253 63 63 3.0 7.0 0.00 0.20 0.20 94 1001.2
20240527004752 63 75 3.0 6.0 0.00 0.20 0.20 94 1001.1
20240527004253 63 71 3.0 9.0 0.00 0.20 0.20 94 1000.8
20240527003752 64 41 3.0 9.0 0.00 0.20 0.20 94 1000.8
20240527003253 64 76 2.0 6.0 0.00 0.20 0.20 94 1001.0
20240527002754 64 85 2.0 9.0 0.00 0.20 0.20 94 1001.1
20240527002254 64 85 2.0 9.0 0.01 0.20 0.20 94 1001.2
20240527001754 64 0 3.0 6.0 0.02 0.20 0.20 94 1001.2
20240527001253 64 0 2.0 6.0 0.03 0.20 0.20 94 1001.2
20240527000252 64 49 2.0 7.0 0.06 0.20 0.20 94 1001.7
20240526235748 63 24 2.0 7.0 0.08 0.20 0.20 94 1002.0
20240526234752 63 357 2.0 5.0 0.12 0.20 0.20 93 1002.2
20240526234253 64 345 2.0 7.0 0.13 0.20 0.20 93 1002.2
20240526233750 64 338 4.0 10.0 0.15 0.20 0.20 93 1002.1
20240526233250 64 16 3.0 10.0 0.17 0.20 0.20 93 1002.2
20240526232750 64 289 5.0 10.0 0.18 0.20 0.20 93 1002.4
20240526232250 64 0 3.0 14.0 0.19 0.19 0.19 92 1002.1
20240526231749 64 80 6.0 14.0 0.18 0.18 0.18 92 1001.4
20240526230749 65 86 6.0 9.0 0.16 0.16 0.16 92 1003.1
20240526230250 65 79 3.0 4.0 0.14 0.14 0.14 91 1003.6
20240526225753 65 216 1.0 6.0 0.12 0.12 0.13 90 1003.8
20240526225252 65 214 2.0 6.0 0.10 0.10 0.11 89 1004.0
20240526223749 68 238 3.0 11.0 0.05 0.05 0.05 84 1004.3
20240526223250 69 178 6.0 14.0 0.03 0.03 0.03 81 1004.3
20240526222750 71 135 7.0 14.0 0.02 0.02 0.02 78 1003.9
20240526221749 72 140 4.0 7.0 0.00 0.00 0.00 74 1002.8
20240526221251 72 92 5.0 11.0 0.00 0.00 0.00 75 1002.5
20240526220750 72 75 3.0 11.0 0.00 0.00 0.00 75 1002.4
20240526220249 73 103 4.0 9.0 0.00 0.00 0.00 74 1002.5
20240526215749 73 128 4.0 9.0 0.00 0.00 0.00 74 1002.6
20240526215249 73 87 6.0 11.0 0.00 0.00 0.00 73 1002.5
20240526214749 73 63 6.0 11.0 0.00 0.00 0.00 73 1002.6
20240526214249 73 69 6.0 12.0 0.00 0.00 0.00 73 1002.6
20240526213749 73 96 5.0 12.0 0.00 0.00 0.00 72 1002.7
20240526213249 73 102 5.0 15.0 0.00 0.00 0.00 72 1002.8
20240526212749 73 73 6.0 15.0 0.00 0.00 0.00 73 1002.9
20240526212250 73 87 7.0 12.0 0.00 0.00 0.00 72 1003.0
20240526211749 73 73 7.0 14.0 0.00 0.00 0.00 73 1003.1
20240526211250 73 63 6.0 15.0 0.00 0.00 0.00 72 1003.2
20240526210749 73 106 8.0 15.0 0.00 0.00 0.00 72 1003.2
20240526205749 74 114 6.0 11.0 0.00 0.00 0.00 73 1003.1
20240526205250 74 86 6.0 14.0 0.00 0.00 0.00 72 1003.1
20240526204748 74 102 5.0 14.0 0.00 0.00 0.00 73 1003.3
20240526204250 74 80 5.0 14.0 0.00 0.00 0.00 73 1003.3
20240526203748 74 92 7.0 14.0 0.00 0.00 0.00 73 1003.2
20240526203248 74 135 8.0 14.0 0.00 0.00 0.00 72 1003.3
20240526202748 74 111 6.0 14.0 0.00 0.00 0.00 73 1003.4
20240526202248 74 66 7.0 14.0 0.00 0.00 0.00 73 1003.5
20240526201748 74 71 6.0 15.0 0.00 0.00 0.00 72 1003.5
20240526201249 74 116 7.0 15.0 0.00 0.00 0.00 72 1003.7
20240526200753 74 111 9.0 19.0 0.00 0.00 0.00 72 1003.7
20240526200248 74 117 8.0 19.0 0.00 0.00 0.00 72 1003.9
20240526195749 74 94 9.0 20.0 0.00 0.00 0.00 71 1003.9
20240526195248 74 135 10.0 20.0 0.00 0.00 0.00 71 1004.0
20240526194748 75 72 7.0 16.0 0.00 0.00 0.00 71 1004.1
20240526194248 75 94 9.0 19.0 0.00 0.00 0.00 70 1004.1
20240526193247 75 152 10.0 20.0 0.00 0.00 0.00 69 1004.2
20240526192747 75 83 5.0 14.0 0.00 0.00 0.00 70 1004.1
20240526192248 75 73 8.0 20.0 0.00 0.00 0.00 69 1004.2
20240526191248 75 123 10.0 20.0 0.00 0.00 0.00 66 1004.2
20240526190746 75 90 11.0 20.0 0.00 0.00 0.00 65 1004.3
20240526190247 75 75 9.0 17.0 0.00 0.00 0.00 65 1004.6
20240526185246 76 66 11.0 18.0 0.00 0.00 0.00 64 1004.8
20240526184747 76 125 10.0 18.0 0.00 0.00 0.00 64 1004.9
20240526183747 76 128 10.0 23.0 0.00 0.00 0.00 63 1005.3
20240526182746 75 93 8.0 17.0 0.00 0.00 0.00 64 1005.9
20240526181747 75 79 10.0 19.0 0.00 0.00 0.00 64 1006.2
20240526181245 76 92 11.0 19.0 0.00 0.00 0.00 63 1006.3
20240526180246 76 123 6.0 16.0 0.00 0.00 0.00 65 1006.5
20240526175744 76 68 8.0 16.0 0.00 0.00 0.00 65 1006.7
20240526175246 76 162 8.0 15.0 0.00 0.00 0.00 66 1006.9
20240526174246 76 82 8.0 16.0 0.00 0.00 0.00 66 1006.9
20240526173743 76 63 6.0 15.0 0.00 0.00 0.00 68 1007.0
20240526173243 76 72 6.0 15.0 0.00 0.00 0.00 67 1007.1
20240526172745 76 92 8.0 14.0 0.00 0.00 0.00 67 1007.3
20240526172240 76 80 7.0 12.0 0.00 0.00 0.00 68 1007.7
20240526171244 76 144 7.0 16.0 0.00 0.00 0.00 67 1007.8
20240526165244 75 71 7.0 14.0 0.00 0.00 0.00 70 1008.3
20240526164744 75 135 7.0 14.0 0.00 0.00 0.00 69 1008.5
20240526164241 76 75 6.0 15.0 0.00 0.00 0.00 70 1008.6
20240526163740 76 137 7.0 15.0 0.00 0.00 0.00 69 1008.8
20240526163241 76 78 7.0 11.0 0.00 0.00 0.00 70 1008.9
20240526162740 76 116 5.0 13.0 0.00 0.00 0.00 69 1009.1
20240526162244 76 140 5.0 13.0 0.00 0.00 0.00 70 1009.0
20240526161743 76 130 7.0 14.0 0.00 0.00 0.00 69 1009.0